createdAt,value
2023-01-09T00:02:33.799Z,8.80
2023-01-09T00:05:35.271Z,8.82
2023-01-09T00:08:37.096Z,8.94
2023-01-09T00:11:38.634Z,8.75
2023-01-09T00:14:40.039Z,8.71
2023-01-09T00:17:41.436Z,8.67
2023-01-09T00:20:42.829Z,8.60
2023-01-09T00:23:44.223Z,8.65
2023-01-09T00:26:45.603Z,8.28
2023-01-09T00:29:49.404Z,8.51
2023-01-09T00:32:51.855Z,8.81
2023-01-09T00:35:53.274Z,8.14
2023-01-09T00:38:54.825Z,8.76
2023-01-09T00:41:58.474Z,8.73
2023-01-09T00:45:08.414Z,8.83
2023-01-09T00:48:13.661Z,8.84
2023-01-09T00:51:16.597Z,8.89
2023-01-09T00:54:20.612Z,8.93
2023-01-09T00:57:22.019Z,8.95
2023-01-09T01:00:23.515Z,8.96
2023-01-09T01:03:24.956Z,8.82
2023-01-09T01:06:45.239Z,8.80
2023-01-09T01:09:46.632Z,8.66
2023-01-09T01:12:49.015Z,8.78
2023-01-09T01:15:50.500Z,8.81
2023-01-09T01:18:52.175Z,8.77
2023-01-09T01:21:55.128Z,8.36
2023-01-09T01:24:56.729Z,8.75
2023-01-09T01:27:58.141Z,8.85
2023-01-09T01:30:59.685Z,8.81
2023-01-09T01:34:01.127Z,8.81
2023-01-09T01:37:02.549Z,8.74
2023-01-09T01:40:05.741Z,8.77
2023-01-09T01:43:11.899Z,8.86
2023-01-09T01:46:13.384Z,8.82
2023-01-09T01:49:20.397Z,8.85
2023-01-09T01:52:23.327Z,8.91
2023-01-09T01:55:25.100Z,8.87
2023-01-09T01:58:27.711Z,8.93
2023-01-09T02:01:30.361Z,9.03
2023-01-09T02:04:34.708Z,8.72
2023-01-09T02:07:36.121Z,8.89
2023-01-09T02:10:39.092Z,8.92
2023-01-09T02:13:41.950Z,8.73
2023-01-09T02:16:51.909Z,8.72
2023-01-09T02:20:31.334Z,8.83
2023-01-09T02:23:57.446Z,8.77
2023-01-09T02:27:23.298Z,8.87
2023-01-09T02:30:26.987Z,8.74
2023-01-09T02:33:50.011Z,8.46
2023-01-09T02:36:54.401Z,8.52
2023-01-09T02:40:09.556Z,8.47
2023-01-09T02:43:12.647Z,8.71
2023-01-09T02:46:21.431Z,8.67
2023-01-09T02:49:22.832Z,8.24
2023-01-09T02:52:52.135Z,8.59
2023-01-09T02:56:17.892Z,8.71
2023-01-09T02:59:31.555Z,8.91
2023-01-09T03:02:42.481Z,9.00
2023-01-09T03:05:52.482Z,8.80
2023-01-09T03:08:59.194Z,8.61
2023-01-09T03:12:29.863Z,8.46
2023-01-09T03:15:36.291Z,8.35
2023-01-09T03:18:39.282Z,8.37
2023-01-09T03:21:42.086Z,8.41
2023-01-09T03:24:43.549Z,8.37
2023-01-09T03:27:45.002Z,8.15
2023-01-09T03:30:46.410Z,8.21
2023-01-09T03:33:48.169Z,8.10
2023-01-09T03:36:49.560Z,8.11
2023-01-09T03:39:51.020Z,7.84
2023-01-09T03:42:52.434Z,7.90
2023-01-09T03:45:54.083Z,7.55
2023-01-09T03:48:55.516Z,7.53
2023-01-09T03:51:56.923Z,7.64
2023-01-09T03:54:58.362Z,7.75
2023-01-09T03:57:59.919Z,7.72
2023-01-09T04:01:03.661Z,7.59
2023-01-09T04:04:05.273Z,7.44
2023-01-09T04:07:06.690Z,7.42
2023-01-09T04:10:10.370Z,7.54
2023-01-09T04:13:12.297Z,7.45
2023-01-09T04:16:13.841Z,6.98
2023-01-09T04:19:15.251Z,6.85
2023-01-09T04:22:16.665Z,6.89
2023-01-09T04:25:18.150Z,6.51
2023-01-09T04:28:19.714Z,6.95
2023-01-09T04:31:21.241Z,6.76
2023-01-09T04:34:25.519Z,6.91
2023-01-09T04:37:26.984Z,7.10
2023-01-09T04:40:28.475Z,7.00
2023-01-09T04:43:29.924Z,6.83
2023-01-09T04:46:31.407Z,6.94
2023-01-09T04:49:32.872Z,7.01
2023-01-09T04:52:34.346Z,6.59
2023-01-09T04:55:35.801Z,6.75
2023-01-09T04:58:37.185Z,6.92
2023-01-09T05:01:38.808Z,6.81
2023-01-09T05:04:40.362Z,6.64
2023-01-09T05:07:41.769Z,6.80
2023-01-09T05:10:43.136Z,6.88
2023-01-09T05:13:44.824Z,6.69
2023-01-09T05:16:46.356Z,6.72
2023-01-09T05:19:47.871Z,6.77
2023-01-09T05:22:49.340Z,6.69
2023-01-09T05:25:50.995Z,6.93
2023-01-09T05:28:53.454Z,6.74
2023-01-09T05:31:54.821Z,6.75
2023-01-09T05:34:56.313Z,6.82
2023-01-09T05:37:58.099Z,6.92
2023-01-09T05:40:59.509Z,6.85
2023-01-09T05:44:00.990Z,6.91
2023-01-09T05:47:02.993Z,6.91
2023-01-09T05:50:05.333Z,7.00
2023-01-09T05:53:06.847Z,7.05
2023-01-09T05:56:10.116Z,7.03
2023-01-09T05:59:12.708Z,7.04
2023-01-09T06:02:14.208Z,6.96
2023-01-09T06:05:15.791Z,6.81
2023-01-09T06:08:17.586Z,6.84
2023-01-09T06:11:19.012Z,6.98
2023-01-09T06:14:21.447Z,7.02
2023-01-09T06:17:22.751Z,7.05
2023-01-09T06:20:24.187Z,7.11
2023-01-09T06:23:25.599Z,7.10
2023-01-09T06:26:27.048Z,7.19
2023-01-09T06:29:28.470Z,7.18
2023-01-09T06:32:29.908Z,7.34
2023-01-09T06:35:31.391Z,7.21
2023-01-09T06:38:33.005Z,7.27
2023-01-09T06:41:34.409Z,7.05
2023-01-09T06:44:36.721Z,7.05
2023-01-09T06:47:38.194Z,7.08
2023-01-09T06:50:39.606Z,7.09
2023-01-09T06:53:41.027Z,7.11
2023-01-09T06:56:42.517Z,7.20
2023-01-09T06:59:43.901Z,7.04
2023-01-09T07:02:45.505Z,7.01
2023-01-09T07:05:47.542Z,7.12
2023-01-09T07:08:48.959Z,7.09
2023-01-09T07:11:50.421Z,7.06
2023-01-09T07:14:51.870Z,6.87
2023-01-09T07:17:54.303Z,6.91
2023-01-09T07:20:55.720Z,6.78
2023-01-09T07:23:57.137Z,6.81
2023-01-09T07:26:58.587Z,6.86
2023-01-09T07:30:00.105Z,6.79
2023-01-09T07:33:03.829Z,6.80
2023-01-09T07:36:05.832Z,6.88
2023-01-09T07:39:09.026Z,6.89
2023-01-09T07:42:11.454Z,7.02
2023-01-09T07:45:12.917Z,6.84
2023-01-09T07:48:14.408Z,6.96
2023-01-09T07:51:15.812Z,6.92
2023-01-09T07:54:17.438Z,6.84
2023-01-09T07:57:19.024Z,6.69
2023-01-09T08:00:21.125Z,7.00
2023-01-09T08:03:22.560Z,7.04
2023-01-09T08:06:24.016Z,7.02
2023-01-09T08:09:25.475Z,7.22
2023-01-09T08:12:26.934Z,7.12
2023-01-09T08:15:28.406Z,7.26
2023-01-09T08:18:29.824Z,7.38
2023-01-09T08:21:31.254Z,7.07
2023-01-09T08:24:32.804Z,7.10
2023-01-09T08:27:34.202Z,7.27
2023-01-09T08:30:36.227Z,7.09
2023-01-09T08:33:39.858Z,7.22
2023-01-09T08:36:41.944Z,7.39
2023-01-09T08:39:43.427Z,7.34
2023-01-09T08:43:04.061Z,7.09
2023-01-09T08:46:24.927Z,7.16
2023-01-09T08:49:26.355Z,7.71
2023-01-09T08:52:30.653Z,7.71
2023-01-09T08:55:32.063Z,7.60
2023-01-09T08:58:33.560Z,7.65
2023-01-09T09:01:34.998Z,7.53
2023-01-09T09:04:36.501Z,7.30
2023-01-09T09:07:38.007Z,7.26
2023-01-09T09:10:39.571Z,7.78
2023-01-09T09:13:40.981Z,7.57
2023-01-09T09:16:42.396Z,7.88
2023-01-09T09:19:43.894Z,7.75
2023-01-09T09:22:48.980Z,7.71
2023-01-09T09:25:50.424Z,7.74
2023-01-09T09:28:51.890Z,7.20
2023-01-09T09:31:53.273Z,7.89
2023-01-09T09:34:54.751Z,7.73
2023-01-09T09:37:58.611Z,7.74
2023-01-09T09:41:07.564Z,7.94
2023-01-09T09:44:53.943Z,8.01
2023-01-09T09:48:33.302Z,7.89
2023-01-09T09:51:56.617Z,8.32
2023-01-09T09:55:05.468Z,8.19
2023-01-09T09:58:15.890Z,8.66
2023-01-09T10:01:28.927Z,8.36
2023-01-09T10:04:33.426Z,8.84
2023-01-09T10:07:42.084Z,8.33
2023-01-09T10:10:51.142Z,8.56
2023-01-09T10:14:06.414Z,8.36
2023-01-09T10:17:20.455Z,8.11
2023-01-09T10:20:34.956Z,8.06
2023-01-09T10:23:42.321Z,8.42
2023-01-09T10:26:48.381Z,8.40
2023-01-09T10:29:58.812Z,8.48
2023-01-09T10:33:19.076Z,8.52
2023-01-09T10:36:31.074Z,8.47
2023-01-09T10:39:56.161Z,8.05
2023-01-09T10:43:04.375Z,8.04
2023-01-09T10:46:11.752Z,8.35
2023-01-09T10:49:17.563Z,7.94
2023-01-09T10:52:25.072Z,7.83
2023-01-09T10:55:49.335Z,8.13
2023-01-09T10:58:52.282Z,8.20
2023-01-09T11:01:54.090Z,8.27
2023-01-09T11:04:55.686Z,8.09
2023-01-09T11:08:04.336Z,8.09
2023-01-09T11:11:06.632Z,8.59
2023-01-09T11:14:14.603Z,8.47
2023-01-09T11:17:21.001Z,8.46
2023-01-09T11:20:22.320Z,8.55
2023-01-09T11:23:25.501Z,8.46
2023-01-09T11:26:28.599Z,8.90
2023-01-09T11:29:29.964Z,8.55
2023-01-09T11:32:32.058Z,8.51
2023-01-09T11:35:35.531Z,8.61
2023-01-09T11:38:49.800Z,8.41
2023-01-09T11:42:03.032Z,8.25
2023-01-09T11:45:05.011Z,8.29
2023-01-09T11:48:17.765Z,7.96
2023-01-09T11:51:22.501Z,8.07
2023-01-09T11:54:28.606Z,7.95
2023-01-09T11:57:30.659Z,8.07
2023-01-09T12:00:45.847Z,7.77
2023-01-09T12:04:23.510Z,8.06
2023-01-09T12:07:57.768Z,7.65
2023-01-09T12:11:46.569Z,7.83
2023-01-09T12:15:02.212Z,7.59
2023-01-09T12:18:34.312Z,7.60
2023-01-09T12:21:46.109Z,7.65
2023-01-09T12:25:12.473Z,7.91
2023-01-09T12:28:30.708Z,8.03
2023-01-09T12:31:48.147Z,7.37
2023-01-09T12:35:11.423Z,7.70
2023-01-09T12:38:22.539Z,7.41
2023-01-09T12:41:48.062Z,7.28
2023-01-09T12:44:55.750Z,7.38
2023-01-09T12:48:29.182Z,7.43
2023-01-09T12:51:45.204Z,7.50
2023-01-09T12:54:57.045Z,7.61
2023-01-09T12:58:03.463Z,7.88
2023-01-09T13:01:12.485Z,7.71
2023-01-09T13:04:25.975Z,7.85
2023-01-09T13:07:33.752Z,7.90
2023-01-09T13:10:42.630Z,8.11
2023-01-09T13:13:58.561Z,7.97
2023-01-09T13:17:02.448Z,7.98
2023-01-09T13:20:19.730Z,7.76
2023-01-09T13:23:39.039Z,7.71
2023-01-09T13:26:45.318Z,7.64
2023-01-09T13:29:55.807Z,7.78
2023-01-09T13:33:21.780Z,7.85
2023-01-09T13:36:28.073Z,7.97
2023-01-09T13:39:38.115Z,7.91
2023-01-09T13:42:44.105Z,7.96
2023-01-09T13:45:51.202Z,7.99
2023-01-09T13:48:53.135Z,7.67
2023-01-09T13:52:40.366Z,7.46
2023-01-09T13:56:02.557Z,7.44
2023-01-09T13:59:27.421Z,7.25
2023-01-09T14:02:47.135Z,7.26
2023-01-09T14:05:48.497Z,7.05
2023-01-09T14:09:08.280Z,7.28
2023-01-09T14:12:15.372Z,7.14
2023-01-09T14:15:40.418Z,7.27
2023-01-09T14:18:49.454Z,7.50
2023-01-09T14:21:57.857Z,7.91
2023-01-09T14:25:15.303Z,7.73
2023-01-09T14:28:29.560Z,7.80
2023-01-09T14:31:32.874Z,7.95
2023-01-09T14:34:40.620Z,7.74
2023-01-09T14:37:43.444Z,7.58
2023-01-09T14:40:50.701Z,7.57
2023-01-09T14:44:06.412Z,7.75
2023-01-09T14:47:28.272Z,7.55
2023-01-09T14:50:34.189Z,7.38
2023-01-09T14:53:39.464Z,7.05
2023-01-09T14:56:47.034Z,7.56
2023-01-09T15:00:15.159Z,7.31
2023-01-09T15:03:17.172Z,6.92
2023-01-09T15:06:22.771Z,6.58
2023-01-09T15:09:26.434Z,6.58
2023-01-09T15:12:28.385Z,6.92
2023-01-09T15:15:30.037Z,6.57
2023-01-09T15:18:40.204Z,6.67
2023-01-09T15:21:56.856Z,6.34
2023-01-09T15:24:59.569Z,6.32
2023-01-09T15:28:19.505Z,6.32
2023-01-09T15:31:24.300Z,6.68
2023-01-09T15:34:26.356Z,6.33
2023-01-09T15:37:38.825Z,6.62
2023-01-09T15:40:40.618Z,6.54
2023-01-09T15:43:43.912Z,6.44
2023-01-09T15:46:46.606Z,6.29
2023-01-09T15:49:48.216Z,6.33
2023-01-09T15:52:51.412Z,6.50
2023-01-09T15:56:26.605Z,6.20
2023-01-09T15:59:28.647Z,6.36
2023-01-09T16:02:48.737Z,6.37
2023-01-09T16:06:07.372Z,6.24
2023-01-09T16:09:37.770Z,6.40
2023-01-09T16:12:40.299Z,6.36
2023-01-09T16:15:45.606Z,6.41
2023-01-09T16:18:52.237Z,6.22
2023-01-09T16:21:58.541Z,6.07
2023-01-09T16:25:21.001Z,6.34
2023-01-09T16:28:28.276Z,6.43
2023-01-09T16:31:30.829Z,6.26
2023-01-09T16:34:36.015Z,6.46
2023-01-09T16:37:37.545Z,6.45
2023-01-09T16:40:38.991Z,6.50
2023-01-09T16:43:40.516Z,6.09
2023-01-09T16:46:43.749Z,6.51
2023-01-09T16:49:45.190Z,6.37
2023-01-09T16:52:47.528Z,6.37
2023-01-09T16:55:49.986Z,6.33
2023-01-09T16:58:54.476Z,6.31
2023-01-09T17:01:56.000Z,6.29
2023-01-09T17:04:59.154Z,6.13
2023-01-09T17:08:00.592Z,5.81
2023-01-09T17:11:03.899Z,5.98
2023-01-09T17:14:06.867Z,5.86
2023-01-09T17:17:14.840Z,6.24
2023-01-09T17:20:20.708Z,6.17
2023-01-09T17:23:22.922Z,5.89
2023-01-09T17:26:43.181Z,5.84
2023-01-09T17:29:45.153Z,6.06
2023-01-09T17:32:47.530Z,5.98
2023-01-09T17:35:48.927Z,6.05
2023-01-09T17:38:54.837Z,5.99
2023-01-09T17:41:57.581Z,6.01
2023-01-09T17:44:59.627Z,5.89
2023-01-09T17:48:01.009Z,5.95
2023-01-09T17:51:02.414Z,5.77
2023-01-09T17:54:04.076Z,6.17
2023-01-09T17:57:07.400Z,6.24
2023-01-09T18:00:23.050Z,5.96
2023-01-09T18:03:26.309Z,6.27
2023-01-09T18:06:28.812Z,6.23
2023-01-09T18:09:30.297Z,6.12
2023-01-09T18:12:31.732Z,5.99
2023-01-09T18:15:33.200Z,6.11
2023-01-09T18:18:35.513Z,6.13
2023-01-09T18:21:37.124Z,6.25
2023-01-09T18:24:38.600Z,6.07
2023-01-09T18:27:40.093Z,6.01
2023-01-09T18:30:47.277Z,6.09
2023-01-09T18:33:53.270Z,6.17
2023-01-09T18:36:54.972Z,6.28
2023-01-09T18:39:56.530Z,6.12
2023-01-09T18:42:57.984Z,6.15
2023-01-09T18:45:59.601Z,6.16
2023-01-09T18:49:03.728Z,6.16
2023-01-09T18:52:07.450Z,6.04
2023-01-09T18:55:09.846Z,5.65
2023-01-09T18:58:11.342Z,6.24
2023-01-09T19:01:14.435Z,6.20
2023-01-09T19:04:15.968Z,6.25
2023-01-09T19:07:17.999Z,5.84
2023-01-09T19:10:19.643Z,6.28
2023-01-09T19:13:21.178Z,6.39
2023-01-09T19:16:22.642Z,6.31
2023-01-09T19:19:24.069Z,6.49
2023-01-09T19:22:26.794Z,6.52
2023-01-09T19:25:28.957Z,6.45
2023-01-09T19:28:30.371Z,6.39
2023-01-09T19:31:32.233Z,6.35
2023-01-09T19:34:33.766Z,6.43
2023-01-09T19:37:35.350Z,6.36
2023-01-09T19:40:36.739Z,6.15
2023-01-09T19:43:40.442Z,6.28
2023-01-09T19:46:42.001Z,6.27
2023-01-09T19:49:43.445Z,6.28
2023-01-09T19:52:45.288Z,6.31
2023-01-09T19:55:46.678Z,6.21
2023-01-09T19:58:51.388Z,6.44
2023-01-09T20:01:52.947Z,6.36
2023-01-09T20:04:54.486Z,6.41
2023-01-09T20:07:55.973Z,6.60
2023-01-09T20:11:02.213Z,6.64
2023-01-09T20:14:03.715Z,6.51
2023-01-09T20:17:05.140Z,6.53
2023-01-09T20:20:07.526Z,6.46
2023-01-09T20:23:10.371Z,6.61
2023-01-09T20:26:11.726Z,6.50
2023-01-09T20:29:13.182Z,6.78
2023-01-09T20:32:14.586Z,6.62
2023-01-09T20:35:16.248Z,6.53
2023-01-09T20:38:17.695Z,6.07
2023-01-09T20:41:25.742Z,6.10
2023-01-09T20:44:27.194Z,6.13
2023-01-09T20:47:28.901Z,6.29
2023-01-09T20:50:31.261Z,5.83
2023-01-09T20:53:32.695Z,6.15
2023-01-09T20:56:34.203Z,6.09
2023-01-09T20:59:35.642Z,5.74
2023-01-09T21:02:37.168Z,5.94
2023-01-09T21:05:46.549Z,5.81
2023-01-09T21:08:50.189Z,5.80
2023-01-09T21:11:51.668Z,5.85
2023-01-09T21:15:01.838Z,5.76
2023-01-09T21:18:03.276Z,5.98
2023-01-09T21:21:11.299Z,5.92
2023-01-09T21:24:12.868Z,6.05
2023-01-09T21:27:14.381Z,5.90
2023-01-09T21:30:15.905Z,5.80
2023-01-09T21:33:21.549Z,5.84
2023-01-09T21:36:23.021Z,5.62
2023-01-09T21:39:24.572Z,5.75
2023-01-09T21:42:44.532Z,5.64
2023-01-09T21:46:04.382Z,5.90
2023-01-09T21:49:06.610Z,5.95
2023-01-09T21:52:08.269Z,5.96
2023-01-09T21:55:09.678Z,6.19
2023-01-09T21:58:11.098Z,6.02
2023-01-09T22:01:12.632Z,5.80
2023-01-09T22:04:16.769Z,5.75
2023-01-09T22:07:18.227Z,5.78
2023-01-09T22:10:19.755Z,5.54
2023-01-09T22:13:21.483Z,5.58
2023-01-09T22:16:27.126Z,5.65
2023-01-09T22:19:28.598Z,5.44
2023-01-09T22:22:30.039Z,5.63
2023-01-09T22:25:31.488Z,5.55
2023-01-09T22:28:33.021Z,5.70
2023-01-09T22:31:34.948Z,5.95
2023-01-09T22:34:36.447Z,5.61
2023-01-09T22:37:37.889Z,5.79
2023-01-09T22:40:40.359Z,6.09
2023-01-09T22:43:41.752Z,6.08
2023-01-09T22:46:43.324Z,5.58
2023-01-09T22:49:53.504Z,5.82
2023-01-09T22:52:55.258Z,5.77
2023-01-09T22:55:58.808Z,6.06
2023-01-09T22:59:01.002Z,5.60
2023-01-09T23:02:02.596Z,5.80
2023-01-09T23:05:04.480Z,6.02
2023-01-09T23:08:05.955Z,6.06
2023-01-09T23:11:11.377Z,5.95
2023-01-09T23:14:13.277Z,5.98
2023-01-09T23:17:14.973Z,6.01
2023-01-09T23:20:16.658Z,5.60
2023-01-09T23:23:18.507Z,5.87
2023-01-09T23:26:19.919Z,5.92
2023-01-09T23:29:22.708Z,6.06
2023-01-09T23:32:24.101Z,6.08
2023-01-09T23:35:25.510Z,6.02
2023-01-09T23:38:26.943Z,5.81
2023-01-09T23:41:48.317Z,5.96
2023-01-09T23:44:49.955Z,5.87
2023-01-09T23:47:51.493Z,5.85
2023-01-09T23:50:54.259Z,5.68
2023-01-09T23:53:55.665Z,5.77
2023-01-09T23:56:57.056Z,5.52
2023-01-09T23:59:58.625Z,5.63
